Time;durP1;ratioP1;P1;durP2;ratioP2;P2;SDS_P1;SDS_P2;PMS_P1;PMS_P2;Temp;Humidity;BMP_temperature;BMP_pressure;BME280_temperature;BME280_humidity;BME280_pressure;Samples;Min_cycle;Max_cycle;Signal;HPM_P1;HPM_P2
2023/12/24 21:58:41;;;;;;;21.08;15.95;;;20.80;99.90;;;;;;4947036;29;20102;-68
2023/12/24 22:01:07;;;;;;;22.55;16.30;;;21.10;99.90;;;;;;4937812;29;20609;-69
2023/12/24 22:03:34;;;;;;;20.52;14.23;;;21.20;99.90;;;;;;4931042;28;20518;-70
2023/12/24 22:06:03;;;;;;;16.00;10.95;;;21.10;99.90;;;;;;4930693;29;20155;-70
2023/12/24 22:08:30;;;;;;;16.02;13.05;;;21.00;99.90;;;;;;4929111;29;20532;-69
2023/12/24 22:10:56;;;;;;;13.35;8.93;;;21.10;99.90;;;;;;4929725;29;20085;-71
2023/12/24 22:13:23;;;;;;;11.13;8.30;;;21.00;99.90;;;;;;4933640;29;20718;-69
2023/12/24 22:15:49;;;;;;;17.08;9.30;;;20.90;99.90;;;;;;4932180;29;20146;-67
2023/12/24 22:18:16;;;;;;;19.30;9.38;;;21.00;99.90;;;;;;4931214;29;20426;-69
2023/12/24 22:20:42;;;;;;;15.70;10.25;;;21.10;99.90;;;;;;4931921;29;20086;-69
2023/12/24 22:23:09;;;;;;;15.93;10.23;;;21.20;99.90;;;;;;4933098;29;20086;-68
2023/12/24 22:25:35;;;;;;;12.45;8.00;;;21.20;99.90;;;;;;4932795;29;20433;-68
2023/12/24 22:28:02;;;;;;;10.27;8.75;;;21.00;99.90;;;;;;4933541;29;20520;-70
2023/12/24 22:30:28;;;;;;;14.65;11.68;;;20.90;99.90;;;;;;4933213;29;20133;-68
2023/12/24 22:32:56;;;;;;;12.13;9.15;;;20.80;99.90;;;;;;4932880;29;20141;-68
2023/12/24 22:35:23;;;;;;;9.45;8.45;;;20.70;99.90;;;;;;4932413;29;20099;-67
2023/12/24 22:37:49;;;;;;;13.20;10.13;;;20.70;99.90;;;;;;4933625;29;20081;-69
2023/12/24 22:40:16;;;;;;;13.27;8.40;;;20.80;99.90;;;;;;4931730;29;20174;-68
2023/12/24 22:42:42;;;;;;;10.70;7.60;;;20.90;99.90;;;;;;4933461;29;20114;-67
2023/12/24 22:45:09;;;;;;;11.80;6.50;;;21.00;99.90;;;;;;4932395;29;20090;-69
2023/12/24 22:47:35;;;;;;;10.27;7.43;;;20.80;99.90;;;;;;4931459;29;20114;-68
2023/12/24 22:50:02;;;;;;;9.70;5.60;;;20.70;99.90;;;;;;4932067;29;20086;-67
2023/12/24 22:52:28;;;;;;;8.50;5.43;;;20.60;99.90;;;;;;4937978;29;20117;-67
2023/12/24 22:54:55;;;;;;;7.68;5.72;;;20.70;99.90;;;;;;4935137;28;20141;-67
2023/12/24 22:57:22;;;;;;;11.35;5.20;;;20.70;99.90;;;;;;4932126;29;20110;-68
2023/12/24 22:59:48;;;;;;;6.53;5.82;;;20.70;99.90;;;;;;4931640;29;20173;-68
2023/12/24 23:02:15;;;;;;;9.55;7.55;;;20.70;99.90;;;;;;4931957;29;20087;-68
2023/12/24 23:04:43;;;;;;;8.70;6.65;;;20.70;99.90;;;;;;4931990;29;20094;-68
2023/12/24 23:07:12;;;;;;;7.78;5.70;;;20.70;99.90;;;;;;4932422;29;20124;-67
2023/12/24 23:09:40;;;;;;;8.25;6.22;;;20.80;99.90;;;;;;4932130;29;20081;-65
2023/12/24 23:12:06;;;;;;;5.53;4.90;;;20.80;99.90;;;;;;4931916;29;20104;-67
2023/12/24 23:14:33;;;;;;;9.05;5.47;;;20.70;99.90;;;;;;4930805;29;20444;-69
2023/12/24 23:16:59;;;;;;;9.32;6.47;;;20.70;99.90;;;;;;4932613;29;20082;-69
2023/12/24 23:19:26;;;;;;;10.05;6.05;;;20.60;99.90;;;;;;4930242;29;20089;-67
2023/12/24 23:21:52;;;;;;;10.20;6.35;;;20.40;99.90;;;;;;4928625;29;20082;-66
2023/12/24 23:24:19;;;;;;;7.47;6.30;;;20.50;99.90;;;;;;4929868;29;20085;-68
2023/12/24 23:26:45;;;;;;;8.70;5.80;;;20.50;99.90;;;;;;4946186;28;20394;-66
2023/12/24 23:29:12;;;;;;;10.20;6.53;;;20.50;99.90;;;;;;4932119;29;20186;-70
2023/12/24 23:31:38;;;;;;;6.90;6.20;;;20.50;99.90;;;;;;4932458;29;20086;-69
2023/12/24 23:34:05;;;;;;;11.15;6.45;;;20.50;99.90;;;;;;4931707;28;20095;-68
2023/12/24 23:36:31;;;;;;;17.58;16.02;;;20.40;99.90;;;;;;4931804;29;20452;-69
2023/12/24 23:38:57;;;;;;;12.57;11.27;;;20.30;99.90;;;;;;4931732;29;20265;-69
2023/12/24 23:41:24;;;;;;;12.68;8.27;;;20.20;99.90;;;;;;4932367;29;20537;-70
2023/12/24 23:43:50;;;;;;;13.00;9.23;;;20.10;99.90;;;;;;4930562;29;20091;-68
2023/12/24 23:46:17;;;;;;;12.52;7.82;;;20.00;99.90;;;;;;4930045;29;20078;-68
2023/12/24 23:48:43;;;;;;;11.57;8.18;;;19.90;99.90;;;;;;4931183;29;20114;-63
2023/12/24 23:51:10;;;;;;;12.98;8.93;;;19.80;99.90;;;;;;4931224;29;20425;-68
2023/12/24 23:53:36;;;;;;;13.05;10.52;;;19.80;99.90;;;;;;4930981;29;20426;-68
2023/12/24 23:56:10;;;;;;;12.48;9.18;;;19.60;99.90;;;;;;4931879;29;20079;-69
2023/12/24 23:58:39;;;;;;;12.80;7.97;;;19.60;99.90;;;;;;4942745;29;20521;-69
